Time;durP1;ratioP1;P1;durP2;ratioP2;P2;SDS_P1;SDS_P2;PMS_P1;PMS_P2;Temp;Humidity;BMP_temperature;BMP_pressure;BME280_temperature;BME280_humidity;BME280_pressure;Samples;Min_cycle;Max_cycle;Signal;HPM_P1;HPM_P2
2021/01/18 00:01:57;;;;;;;17.65;7.07;;;;;;;-11.78;46.47;99068.06;10456955;28;20406;-48
2021/01/18 00:06:59;;;;;;;21.60;6.97;;;;;;;-11.85;46.77;99069.81;10456884;28;20059;-48
2021/01/18 00:12:01;;;;;;;25.97;7.73;;;;;;;-11.67;46.94;99070.50;10457110;28;20370;-48
2021/01/18 00:17:06;;;;;;;28.42;9.55;;;;;;;-11.49;46.63;99079.72;10455349;28;20060;-47
2021/01/18 00:22:08;;;;;;;20.50;7.10;;;;;;;-11.44;46.93;99088.13;10455024;28;20045;-49
2021/01/18 00:27:11;;;;;;;19.90;8.20;;;;;;;-11.49;47.09;99092.38;10454728;28;20056;-47
2021/01/18 00:32:13;;;;;;;27.30;8.57;;;;;;;-11.45;47.44;99092.38;10454818;28;20458;-49
2021/01/18 00:37:14;;;;;;;24.20;8.50;;;;;;;-11.44;47.57;99091.50;10455802;28;20504;-47
2021/01/18 00:42:21;;;;;;;25.27;9.23;;;;;;;-11.27;47.96;99086.31;10456420;28;20485;-49
2021/01/18 00:47:23;;;;;;;24.20;10.40;;;;;;;-11.25;47.37;99092.22;10471969;28;20113;-51
2021/01/18 00:52:25;;;;;;;26.57;9.20;;;;;;;-11.25;47.34;99082.06;10496419;28;20037;-51
2021/01/18 00:57:33;;;;;;;20.27;7.70;;;;;;;-11.18;47.04;99065.94;10497448;28;20064;-48
2021/01/18 01:02:38;;;;;;;27.67;9.57;;;;;;;-11.14;46.58;99054.09;10499798;28;20056;-48
2021/01/18 01:07:40;;;;;;;20.10;7.40;;;;;;;-11.14;46.67;99041.41;10495383;28;20044;-48
2021/01/18 01:12:43;;;;;;;20.00;7.57;;;;;;;-11.14;46.52;99039.69;10495960;28;20075;-47
2021/01/18 01:17:46;;;;;;;23.35;7.45;;;;;;;-11.14;46.15;99036.31;10495916;28;20053;-48
2021/01/18 01:22:48;;;;;;;21.47;8.10;;;;;;;-11.17;45.62;99033.81;10459656;28;20113;-48
2021/01/18 01:27:51;;;;;;;15.48;6.25;;;;;;;-11.17;45.80;99024.50;10455013;28;20110;-47
2021/01/18 01:32:54;;;;;;;28.00;8.18;;;;;;;-11.27;45.52;99022.88;10461114;28;20052;-49
2021/01/18 01:37:57;;;;;;;30.00;7.50;;;;;;;-11.39;44.86;99022.97;10494096;28;20056;-47
2021/01/18 01:43:01;;;;;;;23.17;8.10;;;;;;;-11.42;44.81;99026.41;10501539;28;20048;-46
2021/01/18 01:48:04;;;;;;;17.93;6.73;;;;;;;-11.37;45.73;99039.03;10502827;28;20424;-47
2021/01/18 01:53:13;;;;;;;16.75;5.53;;;;;;;-11.26;46.46;99044.03;10504357;28;20047;-48
2021/01/18 01:58:16;;;;;;;13.13;5.13;;;;;;;-11.12;46.72;99032.91;10503523;28;20044;-52
2021/01/18 02:03:25;;;;;;;18.70;7.10;;;;;;;-11.05;46.68;99017.63;10501907;28;20205;-49
2021/01/18 02:08:27;;;;;;;16.33;5.73;;;;;;;-11.18;46.83;99029.56;10501451;28;20044;-48
2021/01/18 02:13:43;;;;;;;24.33;7.20;;;;;;;-11.32;45.56;99044.09;10501104;28;20048;-48
2021/01/18 02:18:56;;;;;;;18.63;7.13;;;;;;;-11.41;46.04;99053.44;10497732;28;20049;-47
2021/01/18 02:24:31;;;;;;;19.95;5.45;;;;;;;-11.49;45.79;99067.03;10462072;28;20053;-47
2021/01/18 02:30:03;;;;;;;18.97;7.10;;;;;;;-11.51;45.62;99079.72;10472966;28;20048;-48
2021/01/18 02:35:45;;;;;;;18.27;6.43;;;;;;;-11.45;45.39;99081.34;10500204;28;20131;-47
2021/01/18 02:40:56;;;;;;;17.37;6.63;;;;;;;-11.45;44.73;99084.75;10457911;28;20052;-47
2021/01/18 02:46:01;;;;;;;22.73;8.33;;;;;;;-11.45;44.97;99091.50;10460218;28;20044;-49
2021/01/18 02:51:06;;;;;;;20.13;7.20;;;;;;;-11.53;45.57;99116.94;10461956;28;20037;-48
2021/01/18 02:56:08;;;;;;;27.37;7.00;;;;;;;-11.77;46.25;99115.34;10459852;28;20052;-49
2021/01/18 03:01:16;;;;;;;23.60;7.13;;;;;;;-11.87;46.28;99134.03;10458267;28;20053;-47
2021/01/18 03:06:23;;;;;;;24.60;6.03;;;;;;;-11.89;46.37;99149.22;10458104;28;20052;-46
2021/01/18 03:11:32;;;;;;;25.37;7.70;;;;;;;-11.90;47.51;99156.84;10457595;28;20481;-47
2021/01/18 03:16:38;;;;;;;20.47;7.23;;;;;;;-11.82;48.03;99152.59;10457851;28;20246;-48
2021/01/18 03:21:46;;;;;;;27.80;9.30;;;;;;;-11.60;47.75;99141.47;10456670;28;20045;-49
2021/01/18 03:26:47;;;;;;;25.80;7.70;;;;;;;-11.50;47.55;99136.38;10458679;28;20075;-47
2021/01/18 03:31:50;;;;;;;36.80;13.27;;;;;;;-11.49;47.08;99122.81;10457843;28;20051;-48
2021/01/18 03:36:53;;;;;;;21.73;7.43;;;;;;;-11.54;46.97;99129.59;10458324;28;20076;-47
2021/01/18 03:41:55;;;;;;;25.30;8.75;;;;;;;-11.44;47.22;99116.88;10457794;28;20053;-46
2021/01/18 03:46:56;;;;;;;28.40;10.00;;;;;;;-11.26;46.91;99117.63;10455228;28;20763;-48
2021/01/18 03:51:59;;;;;;;23.60;8.83;;;;;;;-11.14;47.82;99131.06;10456074;28;20059;-48
2021/01/18 03:57:01;;;;;;;32.22;9.77;;;;;;;-10.96;47.54;99119.06;10455972;28;20048;-48
2021/01/18 04:02:03;;;;;;;23.77;8.87;;;;;;;-10.82;47.82;99089.34;10454314;28;20106;-46
2021/01/18 04:07:09;;;;;;;23.80;8.13;;;;;;;-10.78;47.97;99068.13;10457802;28;20053;-48
2021/01/18 04:12:11;;;;;;;23.50;8.00;;;;;;;-10.82;47.49;99069.03;10457059;28;20056;-53
2021/01/18 04:17:13;;;;;;;20.27;7.63;;;;;;;-10.82;48.12;99075.81;10456900;28;20045;-47
2021/01/18 04:22:16;;;;;;;25.17;9.70;;;;;;;-10.75;47.74;99082.50;10456521;28;20041;-49
2021/01/18 04:27:17;;;;;;;28.15;9.05;;;;;;;-10.63;48.25;99072.22;10459808;28;20053;-50
2021/01/18 04:32:19;;;;;;;25.50;9.77;;;;;;;-10.56;47.41;99078.09;10458745;28;20051;-49
2021/01/18 04:37:22;;;;;;;27.13;10.43;;;;;;;-10.57;46.74;99066.25;10462446;28;20048;-48
2021/01/18 04:42:23;;;;;;;13.23;5.80;;;;;;;-10.64;46.26;99054.47;10458319;28;20091;-48
2021/01/18 04:47:27;;;;;;;31.90;9.53;;;;;;;-10.72;46.01;99057.91;10498917;28;20058;-47
2021/01/18 04:52:47;;;;;;;23.73;8.23;;;;;;;-10.78;45.86;99047.81;10498515;28;20099;-48
2021/01/18 04:57:59;;;;;;;24.67;8.27;;;;;;;-10.91;46.15;99036.09;10499235;28;20509;-47
2021/01/18 05:03:06;;;;;;;25.13;8.80;;;;;;;-11.06;46.25;99052.31;10498630;28;20087;-49
2021/01/18 05:08:21;;;;;;;20.00;7.77;;;;;;;-11.19;46.46;99031.28;10499061;28;20091;-49
2021/01/18 05:13:24;;;;;;;23.67;8.33;;;;;;;-11.32;46.51;99041.56;10504952;28;20040;-48
2021/01/18 05:18:33;;;;;;;;;;;;;;;-11.37;46.74;99046.66;10507657;28;20059;-47
2021/01/18 05:23:39;;;;;;;19.40;4.93;;;;;;;-11.50;46.67;99040.00;10507222;28;19924;-48
2021/01/18 05:28:44;;;;;;;19.13;4.83;;;;;;;-11.60;47.51;99055.25;10506636;28;20052;-49
2021/01/18 05:33:45;;;;;;;24.90;6.67;;;;;;;-11.67;47.68;99053.59;10506642;28;20048;-49
2021/01/18 05:38:48;;;;;;;13.13;4.60;;;;;;;-11.72;46.97;99062.94;10505548;28;20060;-48
2021/01/18 05:43:50;;;;;;;27.08;7.05;;;;;;;-11.77;47.38;99064.66;10505844;28;20372;-49
2021/01/18 05:48:53;;;;;;;30.30;7.70;;;;;;;-11.74;47.59;99073.94;10505649;28;20067;-49
2021/01/18 05:53:56;;;;;;;;;;;;;;;-11.70;47.38;99066.28;10505691;28;20376;-47
2021/01/18 05:58:58;;;;;;;14.77;4.53;;;;;;;-11.71;47.89;99044.34;10506152;28;19978;-48
2021/01/18 06:04:07;;;;;;;21.70;6.70;;;;;;;-11.72;48.05;99050.28;10505670;28;20495;-49
2021/01/18 06:09:09;;;;;;;19.03;7.80;;;;;;;-11.67;48.06;99062.91;10505172;28;20044;-49
2021/01/18 06:14:11;;;;;;;26.83;7.15;;;;;;;-11.60;48.86;99064.56;10504592;28;20052;-47
2021/01/18 06:19:20;;;;;;;22.17;7.63;;;;;;;-11.47;48.91;99083.91;10504943;28;20114;-50
2021/01/18 06:24:28;;;;;;;16.20;6.30;;;;;;;-11.27;49.55;99088.84;10503759;28;20481;-47
2021/01/18 06:29:37;;;;;;;24.37;7.73;;;;;;;-11.07;48.91;99103.09;10504896;28;20054;-48
2021/01/18 06:34:39;;;;;;;24.43;8.47;;;;;;;-10.90;49.78;99103.78;10504298;28;20052;-49
2021/01/18 06:39:42;;;;;;;31.60;10.53;;;;;;;-10.64;49.23;99133.22;10510012;28;20401;-47
2021/01/18 06:44:43;;;;;;;26.27;9.18;;;;;;;-10.38;49.08;99138.88;10503622;28;20056;-48
2021/01/18 06:49:45;;;;;;;21.30;8.47;;;;;;;-10.19;49.13;99139.50;10503439;28;20040;-48
2021/01/18 06:54:52;;;;;;;19.97;7.13;;;;;;;-10.11;49.91;99147.06;10503439;28;20060;-47
2021/01/18 06:59:58;;;;;;;32.13;10.00;;;;;;;-10.02;50.01;99140.16;10503536;28;20116;-47
2021/01/18 07:05:23;;;;;;;34.83;11.70;;;;;;;-9.97;49.61;99147.75;10502829;28;20099;-47
2021/01/18 07:10:31;;;;;;;28.70;9.27;;;;;;;-9.89;49.78;99148.50;10502876;28;20063;-51
2021/01/18 07:15:33;;;;;;;28.03;10.13;;;;;;;-9.96;49.63;99141.81;10503557;28;20055;-50
2021/01/18 07:20:39;;;;;;;30.40;10.20;;;;;;;-10.11;49.31;99141.97;10503101;28;20094;-49
2021/01/18 07:25:43;;;;;;;25.40;10.63;;;;;;;-10.00;49.82;99137.63;10501898;28;20044;-47
2021/01/18 07:30:46;;;;;;;37.20;12.50;;;;;;;-9.85;49.16;99146.75;10501923;28;20116;-47
2021/01/18 07:35:48;;;;;;;40.42;13.25;;;;;;;-9.89;49.54;99133.22;10500773;28;20052;-48
2021/01/18 07:41:13;;;;;;;33.47;12.13;;;;;;;-9.58;50.90;99120.13;10501508;28;20135;-47
2021/01/18 07:46:39;;;;;;;50.90;16.85;;;;;;;-9.23;50.77;99117.13;10501529;28;20049;-48
2021/01/18 07:51:41;;;;;;;37.40;14.23;;;;;;;-9.07;50.51;99120.25;10500531;28;20076;-48
2021/01/18 07:56:44;;;;;;;49.75;17.95;;;;;;;-8.91;50.39;99118.31;10500677;28;20059;-52
2021/01/18 08:01:45;;;;;;;59.55;24.20;;;;;;;-8.84;50.14;99113.09;10499227;28;20068;-49
2021/01/18 08:07:01;;;;;;;64.18;25.88;;;;;;;-8.69;50.46;99117.09;10498617;28;20067;-47
2021/01/18 08:12:32;;;;;;;58.47;23.57;;;;;;;-8.65;49.88;99113.66;10499080;28;20529;-48
2021/01/18 08:17:34;;;;;;;66.33;24.77;;;;;;;-8.81;49.38;99128.31;10497923;28;20052;-47
2021/01/18 08:22:36;;;;;;;34.65;15.48;;;;;;;-9.05;48.93;99118.50;10498068;28;20066;-48
2021/01/18 08:27:51;;;;;;;47.15;19.73;;;;;;;-9.09;48.93;99124.53;10498327;28;20078;-47
2021/01/18 08:32:54;;;;;;;45.30;20.33;;;;;;;-9.09;49.14;99111.81;10497910;28;20389;-48
2021/01/18 08:38:00;;;;;;;66.70;24.10;;;;;;;-8.86;49.86;99103.81;10498573;28;20131;-47
2021/01/18 08:43:03;;;;;;;58.15;22.27;;;;;;;-8.49;50.18;99103.19;10499939;28;20059;-48
2021/01/18 08:48:06;;;;;;;53.15;22.38;;;;;;;-8.04;51.23;99096.34;10497874;28;20202;-50
2021/01/18 08:53:26;;;;;;;63.25;23.88;;;;;;;-7.80;50.88;99104.38;10497867;28;20064;-47
2021/01/18 08:58:47;;;;;;;66.60;24.75;;;;;;;-7.83;51.05;99110.38;10497406;28;20056;-52
2021/01/18 09:03:58;;;;;;;59.53;24.27;;;;;;;-7.95;51.29;99110.63;10470996;28;799587;-48
2021/01/18 09:09:04;;;;;;;47.65;20.85;;;;;;;-7.84;51.69;99105.31;10499539;28;20052;-48
2021/01/18 09:14:06;;;;;;;57.53;23.10;;;;;;;-7.86;51.84;99100.22;10498734;28;20478;-49
2021/01/18 09:19:08;;;;;;;60.42;25.00;;;;;;;-7.51;52.98;99098.66;10498753;28;20477;-51
2021/01/18 09:24:11;;;;;;;70.97;26.38;;;;;;;-7.22;52.58;99109.06;10498547;28;20055;-49
2021/01/18 09:29:21;;;;;;;69.13;26.48;;;;;;;-7.02;52.57;99100.09;10498847;28;20044;-48
2021/01/18 09:34:23;;;;;;;50.90;22.90;;;;;;;-6.94;51.90;99098.22;10498807;28;20086;-47
2021/01/18 09:39:24;;;;;;;54.53;22.52;;;;;;;-6.85;52.22;99082.66;10499019;28;20086;-47
2021/01/18 09:44:27;;;;;;;52.35;17.92;;;;;;;-6.90;51.86;99092.13;10498077;28;20148;-49
2021/01/18 09:49:29;;;;;;;36.15;14.13;;;;;;;-7.18;52.46;99089.41;10497810;28;20358;-48
2021/01/18 09:54:32;;;;;;;40.35;17.95;;;;;;;-7.55;51.66;99099.59;10497708;28;20395;-48
2021/01/18 09:59:40;;;;;;;27.15;11.35;;;;;;;-8.02;51.30;99107.34;10503069;28;20059;-47
2021/01/18 10:04:47;;;;;;;38.03;15.18;;;;;;;-8.46;52.02;99124.38;10504933;28;20071;-48
2021/01/18 10:09:50;;;;;;;43.65;16.15;;;;;;;-8.58;52.77;99122.03;10505136;28;20048;-47
2021/01/18 10:14:54;;;;;;;35.53;13.30;;;;;;;-8.69;52.81;99129.84;10504701;28;20075;-48
2021/01/18 10:20:04;;;;;;;51.97;18.65;;;;;;;-8.57;53.36;99118.59;10504758;28;20148;-47
2021/01/18 10:25:10;;;;;;;60.60;17.27;;;;;;;-8.32;53.27;99111.31;10504756;28;20108;-48
2021/01/18 10:30:14;;;;;;;45.30;18.15;;;;;;;-8.24;53.38;99113.75;10505071;28;20044;-53
2021/01/18 10:35:30;;;;;;;55.33;19.92;;;;;;;-8.01;52.87;99106.47;10504576;28;20052;-49
2021/01/18 10:40:32;;;;;;;41.45;18.13;;;;;;;-7.93;51.85;99111.44;10503275;28;20135;-48
2021/01/18 10:45:41;;;;;;;39.75;15.00;;;;;;;-8.06;51.75;99118.50;10503507;28;20094;-48
2021/01/18 10:50:43;;;;;;;53.55;18.35;;;;;;;-8.19;51.66;99114.47;10502992;28;20059;-49
2021/01/18 10:55:45;;;;;;;47.10;17.55;;;;;;;-8.06;51.48;99105.75;10502846;28;20063;-47
2021/01/18 11:00:48;;;;;;;46.80;18.55;;;;;;;-7.90;51.06;99102.00;10502293;28;20505;-47
2021/01/18 11:05:52;;;;;;;51.78;16.35;;;;;;;-7.75;51.64;99089.81;10503081;28;20110;-49
2021/01/18 11:10:54;;;;;;;46.03;17.98;;;;;;;-7.63;51.02;99092.13;10500389;28;20044;-48
2021/01/18 11:15:56;;;;;;;46.28;19.30;;;;;;;-7.61;51.22;99090.34;10502881;28;20375;-49
2021/01/18 11:20:58;;;;;;;51.33;19.67;;;;;;;-7.52;51.50;99079.09;10502304;28;20105;-48
2021/01/18 11:26:00;;;;;;;53.08;20.40;;;;;;;-7.58;50.39;99080.06;10502220;28;20301;-48
2021/01/18 11:31:04;;;;;;;59.15;20.95;;;;;;;-7.73;49.55;99080.41;10501758;28;20095;-48
2021/01/18 11:36:05;;;;;;;44.13;16.92;;;;;;;-7.74;50.54;99063.41;10501973;28;20481;-48
2021/01/18 11:41:07;;;;;;;36.40;16.55;;;;;;;-7.62;51.29;99059.78;10501200;28;20059;-49
2021/01/18 11:46:16;;;;;;;47.05;17.67;;;;;;;-7.55;50.81;99059.59;10500667;28;20143;-52
2021/01/18 11:51:18;;;;;;;40.83;18.55;;;;;;;-7.53;50.94;99057.84;10500659;28;20381;-48
2021/01/18 11:56:29;;;;;;;41.10;16.45;;;;;;;-7.45;50.89;99066.19;10500600;28;20229;-47
2021/01/18 12:01:32;;;;;;;45.95;16.73;;;;;;;-7.32;51.58;99071.84;10500823;28;20048;-49
2021/01/18 12:06:33;;;;;;;33.03;12.20;;;;;;;-7.22;51.44;99068.19;10500573;28;20103;-51
2021/01/18 12:11:36;;;;;;;43.75;16.83;;;;;;;-7.22;50.57;99073.31;10500394;28;20055;-48
2021/01/18 12:16:39;;;;;;;36.08;16.40;;;;;;;-7.20;50.53;99065.63;10500549;28;20139;-49
2021/01/18 12:21:44;;;;;;;47.63;18.05;;;;;;;-7.21;50.46;99076.69;10502854;28;20058;-47
2021/01/18 12:26:50;;;;;;;36.38;16.42;;;;;;;-7.18;50.75;99063.84;10501642;28;20143;-48
2021/01/18 12:31:53;;;;;;;44.50;17.00;;;;;;;-7.10;51.03;99061.97;10499667;28;20087;-49
2021/01/18 12:36:56;;;;;;;39.47;16.45;;;;;;;-7.06;51.11;99058.44;10498500;28;20053;-48
2021/01/18 12:41:57;;;;;;;46.80;17.17;;;;;;;-7.04;50.60;99055.88;10499673;28;20076;-52
2021/01/18 12:47:00;;;;;;;39.47;16.02;;;;;;;-7.10;50.13;99046.63;10499104;28;20432;-49
2021/01/18 12:52:03;;;;;;;31.13;14.43;;;;;;;-7.18;50.25;99045.97;10498839;28;20041;-49
2021/01/18 12:57:05;;;;;;;36.47;15.40;;;;;;;-7.26;50.16;99050.44;10498834;28;20060;-47
2021/01/18 13:02:08;;;;;;;49.03;16.30;;;;;;;-7.27;49.76;99057.25;10498588;28;20137;-53
2021/01/18 13:07:09;;;;;;;31.83;12.60;;;;;;;-7.39;49.75;99059.25;10499453;28;20052;-47
2021/01/18 13:12:11;;;;;;;42.30;16.88;;;;;;;-7.54;49.56;99061.28;10498535;28;20141;-49
2021/01/18 13:17:15;;;;;;;34.83;15.85;;;;;;;-7.58;49.29;99064.75;10498609;28;20458;-49
2021/01/18 13:22:16;;;;;;;;;;;;;;;-7.64;48.60;99055.53;10499098;28;20102;-48
2021/01/18 13:27:18;;;;;;;35.60;14.98;;;;;;;-7.81;48.42;99069.53;10498435;28;19971;-48
2021/01/18 13:32:20;;;;;;;41.58;14.82;;;;;;;-7.97;48.72;99054.53;10500616;28;20131;-47
2021/01/18 13:37:22;;;;;;;33.95;12.32;;;;;;;-8.00;48.65;99067.38;10506596;28;20048;-47
2021/01/18 13:42:24;;;;;;;35.83;14.50;;;;;;;-8.13;48.90;99065.91;10506408;28;20040;-47
2021/01/18 13:47:26;;;;;;;29.70;13.27;;;;;;;-8.15;49.09;99077.88;10505756;28;20472;-47
2021/01/18 13:52:28;;;;;;;29.17;12.93;;;;;;;-8.28;48.71;99069.63;10505713;28;20052;-47
2021/01/18 13:57:30;;;;;;;42.35;18.17;;;;;;;-8.40;48.21;99057.13;10505933;28;20052;-49
2021/01/18 14:02:32;;;;;;;41.25;17.85;;;;;;;-8.51;48.19;99059.88;10505152;28;20059;-53
2021/01/18 14:07:34;;;;;;;44.67;16.73;;;;;;;-8.65;48.15;99062.69;10489389;28;20048;-47
2021/01/18 14:12:36;;;;;;;42.83;18.53;;;;;;;-8.69;48.60;99067.84;10463043;28;20393;-49
2021/01/18 14:17:40;;;;;;;45.95;17.75;;;;;;;-8.65;49.07;99066.91;10463002;28;20045;-48
2021/01/18 14:22:42;;;;;;;41.97;17.92;;;;;;;-8.64;49.11;99069.44;10462925;28;20063;-49
2021/01/18 14:27:44;;;;;;;33.50;15.70;;;;;;;-8.62;49.04;99071.97;10463490;28;20053;-49
2021/01/18 14:32:48;;;;;;;43.47;20.23;;;;;;;-8.60;48.82;99065.13;10462569;28;20045;-48
2021/01/18 14:37:50;;;;;;;41.43;14.40;;;;;;;-8.71;48.40;99061.94;10461564;28;20075;-47
2021/01/18 14:42:52;;;;;;;39.93;15.70;;;;;;;-8.77;48.31;99067.13;10462841;28;20048;-52
2021/01/18 14:47:54;;;;;;;36.20;17.37;;;;;;;-8.82;48.64;99054.50;10464385;28;20053;-47
2021/01/18 14:52:56;;;;;;;38.95;17.02;;;;;;;-8.74;48.39;99049.25;10485863;28;20415;-49
2021/01/18 14:57:59;;;;;;;52.30;18.30;;;;;;;-8.67;48.83;99043.19;10502850;28;20125;-47
2021/01/18 15:03:01;;;;;;;43.80;17.20;;;;;;;-8.60;48.96;99034.56;10502511;28;20056;-50
2021/01/18 15:08:03;;;;;;;46.72;16.88;;;;;;;-8.49;49.20;99031.81;10502743;28;20044;-48
2021/01/18 15:13:06;;;;;;;30.90;15.30;;;;;;;-8.42;48.75;99034.22;10502573;28;20048;-48
2021/01/18 15:18:09;;;;;;;33.83;11.95;;;;;;;-8.31;49.18;99025.47;10502212;28;20048;-52
2021/01/18 15:23:10;;;;;;;33.03;15.02;;;;;;;-8.29;49.36;99026.28;10502297;28;20078;-47
2021/01/18 15:28:12;;;;;;;35.90;16.77;;;;;;;-8.24;49.05;99022.78;10502052;28;20365;-47
2021/01/18 15:33:17;;;;;;;42.25;17.13;;;;;;;-8.16;49.41;99031.13;10502480;28;20060;-47
2021/01/18 15:38:18;;;;;;;42.10;17.58;;;;;;;-8.09;48.75;99029.28;10499778;28;20062;-48
2021/01/18 15:43:20;;;;;;;38.03;16.90;;;;;;;-8.02;49.15;99030.84;10449612;28;20136;-48
2021/01/18 15:48:23;;;;;;;44.87;17.10;;;;;;;-7.98;49.12;99029.06;10442367;28;20141;-48
2021/01/18 15:53:25;;;;;;;40.63;18.95;;;;;;;-8.06;48.32;99023.28;10454347;28;20049;-48
2021/01/18 15:58:27;;;;;;;46.77;18.63;;;;;;;-8.14;48.73;99028.53;10453106;28;20112;-51
2021/01/18 16:03:30;;;;;;;42.77;16.20;;;;;;;-8.07;48.65;99029.25;10456352;28;20088;-49
2021/01/18 16:08:31;;;;;;;40.17;15.57;;;;;;;-8.06;49.46;99031.78;10454698;28;20059;-47
2021/01/18 16:13:33;;;;;;;38.15;16.35;;;;;;;-8.02;49.44;99025.72;10455395;28;20044;-51
2021/01/18 16:18:36;;;;;;;47.33;19.75;;;;;;;-7.99;49.48;99038.44;10457429;28;20053;-48
2021/01/18 16:23:37;;;;;;;48.70;20.73;;;;;;;-7.96;49.40;99029.88;10433142;28;20045;-47
2021/01/18 16:28:39;;;;;;;54.67;22.33;;;;;;;-7.98;49.26;99024.78;10434949;28;20095;-48
2021/01/18 16:33:42;;;;;;;51.97;21.75;;;;;;;-7.99;49.48;99028.22;10455763;28;20114;-48
2021/01/18 16:38:43;;;;;;;61.15;22.55;;;;;;;-8.00;49.68;99026.56;10465565;28;20147;-47
2021/01/18 16:43:45;;;;;;;58.50;26.50;;;;;;;-8.05;50.25;99030.91;10497180;28;20428;-47
2021/01/18 16:48:49;;;;;;;65.73;25.53;;;;;;;-8.03;50.54;99021.53;10478612;28;20095;-47
2021/01/18 16:53:51;;;;;;;57.13;24.35;;;;;;;-7.89;50.70;99016.94;10455652;28;20068;-46
2021/01/18 16:58:53;;;;;;;53.90;21.88;;;;;;;-7.90;50.47;99017.00;10455117;28;20440;-48
2021/01/18 17:03:55;;;;;;;64.35;24.17;;;;;;;-7.89;50.43;99004.19;10453641;28;20588;-46
2021/01/18 17:08:57;;;;;;;49.75;18.40;;;;;;;-7.88;49.88;99008.44;10459150;28;20098;-47
2021/01/18 17:13:59;;;;;;;64.80;24.23;;;;;;;-7.90;50.06;99001.69;10461258;28;20476;-47
2021/01/18 17:19:02;;;;;;;79.28;27.65;;;;;;;-7.91;49.88;99007.66;10462304;28;20481;-48
2021/01/18 17:24:04;;;;;;;75.65;29.38;;;;;;;-7.92;50.08;99005.97;10465115;28;20135;-48
2021/01/18 17:29:06;;;;;;;82.40;28.93;;;;;;;-7.98;49.96;99014.59;10462300;28;20489;-49
2021/01/18 17:34:09;;;;;;;78.00;28.67;;;;;;;-8.06;50.20;99003.72;10460228;28;20147;-48
2021/01/18 17:39:11;;;;;;;58.42;23.50;;;;;;;-8.06;49.75;99015.66;10461003;28;20512;-53
2021/01/18 17:44:13;;;;;;;77.70;28.80;;;;;;;-8.16;49.81;99013.28;10464048;28;20098;-49
2021/01/18 17:49:15;;;;;;;76.10;30.20;;;;;;;-8.21;50.12;99011.69;10460534;28;20059;-48
2021/01/18 17:54:17;;;;;;;82.03;34.63;;;;;;;-8.24;50.36;99016.84;10463108;28;20049;-48
2021/01/18 17:59:19;;;;;;;84.95;34.67;;;;;;;-8.34;50.21;99013.66;10460894;28;20083;-50
2021/01/18 18:04:21;;;;;;;94.18;33.70;;;;;;;-8.30;50.27;99024.63;10460197;28;20053;-47
2021/01/18 18:09:23;;;;;;;87.87;33.23;;;;;;;-8.29;50.50;99016.94;10459949;28;20055;-48
2021/01/18 18:14:24;;;;;;;91.60;34.42;;;;;;;-8.23;50.30;99011.72;10459271;28;20382;-48
2021/01/18 18:19:27;;;;;;;91.43;33.92;;;;;;;-8.17;50.38;99013.31;10461174;28;20113;-49
2021/01/18 18:24:29;;;;;;;88.57;33.78;;;;;;;-8.21;49.83;99009.16;10459941;28;20059;-48
2021/01/18 18:29:31;;;;;;;98.50;33.10;;;;;;;-8.32;49.86;99008.50;10458449;28;20064;-51
2021/01/18 18:34:33;;;;;;;82.90;32.15;;;;;;;-8.31;49.59;99012.72;10458521;28;20128;-47
2021/01/18 18:39:35;;;;;;;84.00;30.35;;;;;;;-8.36;49.75;99021.31;10437718;28;20049;-49
2021/01/18 18:44:37;;;;;;;76.72;29.95;;;;;;;-8.46;49.87;99024.97;10417177;28;20389;-51
2021/01/18 18:49:39;;;;;;;81.55;32.08;;;;;;;-8.55;50.08;99022.59;10443581;28;20056;-47
2021/01/18 18:54:41;;;;;;;85.60;32.25;;;;;;;-8.63;50.02;99021.88;10458181;28;20067;-48
2021/01/18 18:59:42;;;;;;;96.28;30.95;;;;;;;-8.69;50.20;99021.97;10457502;28;20045;-47
2021/01/18 19:04:45;;;;;;;98.70;34.47;;;;;;;-8.65;49.63;99027.00;10456765;28;20053;-49
2021/01/18 19:09:47;;;;;;;89.18;32.90;;;;;;;-8.64;50.11;99022.75;10457571;28;20148;-48
2021/01/18 19:14:48;;;;;;;105.22;33.30;;;;;;;-8.76;50.05;99028.91;10458186;28;20055;-49
2021/01/18 19:19:51;;;;;;;60.43;23.30;;;;;;;-8.90;50.00;99029.13;10459211;28;20143;-64
2021/01/18 19:24:52;;;;;;;69.25;28.15;;;;;;;-8.98;49.99;99015.72;10458886;28;20790;-47
2021/01/18 19:29:54;;;;;;;92.85;32.20;;;;;;;-9.02;50.24;99021.69;10456617;28;20072;-48
2021/01/18 19:34:57;;;;;;;97.07;29.30;;;;;;;-8.95;50.14;99013.13;10458712;28;20052;-48
2021/01/18 19:39:59;;;;;;;82.55;31.38;;;;;;;-8.86;49.88;99010.41;10455866;28;20056;-48
2021/01/18 19:45:01;;;;;;;80.53;32.03;;;;;;;-8.87;49.73;99023.97;10456046;28;20052;-47
2021/01/18 19:50:05;;;;;;;76.03;27.90;;;;;;;-8.94;49.88;99024.97;10455812;28;20045;-47
2021/01/18 19:55:11;;;;;;;88.05;33.10;;;;;;;-9.07;50.28;99013.31;10453520;28;20137;-49
2021/01/18 20:00:14;;;;;;;72.47;27.10;;;;;;;-9.09;49.76;99020.13;10454250;28;20052;-49
2021/01/18 20:05:17;;;;;;;71.22;23.60;;;;;;;-9.12;50.11;99030.38;10452325;28;20253;-49
2021/01/18 20:10:18;;;;;;;67.53;26.05;;;;;;;-9.21;50.55;99028.81;10452543;28;20136;-47
2021/01/18 20:15:20;;;;;;;72.87;27.07;;;;;;;-9.29;50.72;99041.69;10454597;28;20121;-49
2021/01/18 20:20:23;;;;;;;66.68;26.80;;;;;;;-9.25;50.13;99034.00;10454777;28;20060;-49
2021/01/18 20:25:25;;;;;;;80.95;27.40;;;;;;;-9.33;50.49;99036.63;10453937;28;20056;-48
2021/01/18 20:30:27;;;;;;;66.88;25.50;;;;;;;-9.24;50.36;99033.13;10449393;28;20057;-49
2021/01/18 20:35:30;;;;;;;72.50;24.40;;;;;;;-9.20;50.00;99027.97;10450928;28;20052;-49
2021/01/18 20:40:31;;;;;;;84.03;26.85;;;;;;;-9.11;49.65;99037.13;10449244;28;20045;-47
2021/01/18 20:45:33;;;;;;;63.37;23.83;;;;;;;-9.02;49.60;99041.25;10453510;28;20057;-47
2021/01/18 20:50:36;;;;;;;74.23;21.83;;;;;;;-9.07;49.97;99042.16;10454673;28;20151;-47
2021/01/18 20:55:41;;;;;;;56.92;19.60;;;;;;;-9.13;49.77;99046.53;10450172;28;20089;-48
2021/01/18 21:00:43;;;;;;;71.47;26.30;;;;;;;-9.20;50.56;99050.03;10450601;28;20393;-57
2021/01/18 21:05:46;;;;;;;67.77;24.10;;;;;;;-9.24;50.25;99051.78;10454261;28;20057;-46
2021/01/18 21:10:48;;;;;;;79.90;26.60;;;;;;;-9.23;50.08;99048.38;10452298;28;20045;-47
2021/01/18 21:15:50;;;;;;;78.97;27.33;;;;;;;-9.04;50.04;99048.91;10455727;28;20478;-49
2021/01/18 21:20:52;;;;;;;70.47;27.43;;;;;;;-8.90;49.75;99041.03;10454701;28;20049;-48
2021/01/18 21:25:54;;;;;;;82.88;29.83;;;;;;;-8.82;49.03;99034.94;10452230;28;20071;-48
2021/01/18 21:30:56;;;;;;;69.20;23.67;;;;;;;-8.81;49.12;99030.69;10453663;28;20131;-47
2021/01/18 21:35:58;;;;;;;73.30;25.93;;;;;;;-8.87;49.05;99025.69;10455601;28;20140;-48
2021/01/18 21:41:00;;;;;;;71.78;27.80;;;;;;;-8.87;49.32;99026.53;10456958;28;20102;-47
2021/01/18 21:46:02;;;;;;;73.47;25.88;;;;;;;-8.87;48.78;99021.44;10454068;28;20045;-48
2021/01/18 21:51:05;;;;;;;68.87;25.80;;;;;;;-8.86;49.12;99012.94;10452148;28;20114;-49
2021/01/18 21:56:07;;;;;;;84.63;28.92;;;;;;;-8.83;48.47;99007.81;10458800;28;20143;-47
2021/01/18 22:01:08;;;;;;;83.03;27.77;;;;;;;-8.81;48.45;99005.22;10459918;28;20114;-52
2021/01/18 22:06:14;;;;;;;86.93;28.30;;;;;;;-8.78;48.65;98997.50;10460694;28;20079;-47
2021/01/18 22:11:16;;;;;;;72.53;27.80;;;;;;;-8.76;48.62;98997.50;10461686;28;20167;-47
2021/01/18 22:16:21;;;;;;;73.30;26.40;;;;;;;-8.75;48.54;98992.34;10459359;28;20122;-48
2021/01/18 22:21:24;;;;;;;79.07;26.25;;;;;;;-8.79;48.57;98985.66;10459266;28;20041;-48
2021/01/18 22:26:26;;;;;;;;;;;;;;;-8.71;48.88;98990.59;10459004;28;20401;-48
2021/01/18 22:31:32;;;;;;;70.65;26.17;;;;;;;-8.70;48.39;98992.28;10459438;28;20341;-48
2021/01/18 22:36:35;;;;;;;77.32;26.00;;;;;;;-8.71;48.57;98985.50;10461393;28;20067;-64
2021/01/18 22:41:39;;;;;;;74.45;26.90;;;;;;;-8.75;48.72;98966.06;10461293;28;20040;-48
2021/01/18 22:46:41;;;;;;;67.28;28.83;;;;;;;-8.76;48.30;98979.66;10461155;28;20519;-50
2021/01/18 22:51:48;;;;;;;72.70;27.80;;;;;;;-8.76;48.71;98966.94;10460531;28;20041;-49
2021/01/18 22:56:51;;;;;;;81.78;27.20;;;;;;;-8.75;48.62;98958.41;10458080;28;20081;-48
2021/01/18 23:01:54;;;;;;;68.83;28.00;;;;;;;-8.76;48.43;98966.94;10457599;28;20064;-48